sensor_id;sensor_type;location;lat;lon;timestamp;temperature;humidity
4840;DHT22;2434;48.486;7.964;2023-06-22T00:01:25;24.00;62.50
4840;DHT22;2434;48.486;7.964;2023-06-22T00:03:54;24.00;63.40
4840;DHT22;2434;48.486;7.964;2023-06-22T00:06:22;24.00;62.90
4840;DHT22;2434;48.486;7.964;2023-06-22T00:08:51;24.00;63.70
4840;DHT22;2434;48.486;7.964;2023-06-22T00:11:21;24.00;63.70
4840;DHT22;2434;48.486;7.964;2023-06-22T00:13:50;24.00;63.70
4840;DHT22;2434;48.486;7.964;2023-06-22T00:16:19;23.90;63.40
4840;DHT22;2434;48.486;7.964;2023-06-22T00:18:47;23.90;63.50
4840;DHT22;2434;48.486;7.964;2023-06-22T00:21:15;23.90;64.20
4840;DHT22;2434;48.486;7.964;2023-06-22T00:23:44;23.80;64.20
4840;DHT22;2434;48.486;7.964;2023-06-22T00:26:12;23.80;64.20
4840;DHT22;2434;48.486;7.964;2023-06-22T00:28:42;23.70;64.40
4840;DHT22;2434;48.486;7.964;2023-06-22T00:31:10;23.70;64.60
4840;DHT22;2434;48.486;7.964;2023-06-22T00:33:38;23.70;64.30
4840;DHT22;2434;48.486;7.964;2023-06-22T00:36:07;23.60;64.50
4840;DHT22;2434;48.486;7.964;2023-06-22T00:38:37;23.60;64.50
4840;DHT22;2434;48.486;7.964;2023-06-22T00:41:08;23.60;64.10
4840;DHT22;2434;48.486;7.964;2023-06-22T00:43:36;23.50;64.60
4840;DHT22;2434;48.486;7.964;2023-06-22T00:46:06;23.50;64.30
4840;DHT22;2434;48.486;7.964;2023-06-22T00:48:35;23.50;64.50
4840;DHT22;2434;48.486;7.964;2023-06-22T00:51:04;23.50;64.80
4840;DHT22;2434;48.486;7.964;2023-06-22T00:53:33;23.50;65.00
4840;DHT22;2434;48.486;7.964;2023-06-22T00:56:04;23.50;64.20
4840;DHT22;2434;48.486;7.964;2023-06-22T00:58:35;23.50;64.40
4840;DHT22;2434;48.486;7.964;2023-06-22T01:01:05;23.40;64.20
4840;DHT22;2434;48.486;7.964;2023-06-22T01:03:34;23.40;65.00
4840;DHT22;2434;48.486;7.964;2023-06-22T01:06:08;23.40;65.60
4840;DHT22;2434;48.486;7.964;2023-06-22T01:08:44;23.40;64.50
4840;DHT22;2434;48.486;7.964;2023-06-22T01:11:17;23.40;65.40
4840;DHT22;2434;48.486;7.964;2023-06-22T01:13:54;23.40;64.80
4840;DHT22;2434;48.486;7.964;2023-06-22T01:16:29;23.30;65.20
4840;DHT22;2434;48.486;7.964;2023-06-22T01:19:09;23.30;65.50
4840;DHT22;2434;48.486;7.964;2023-06-22T01:21:38;23.20;65.00
4840;DHT22;2434;48.486;7.964;2023-06-22T01:24:15;23.20;65.80
4840;DHT22;2434;48.486;7.964;2023-06-22T01:26:54;23.20;65.90
4840;DHT22;2434;48.486;7.964;2023-06-22T01:29:27;23.20;66.30
4840;DHT22;2434;48.486;7.964;2023-06-22T01:31:57;23.20;66.10
4840;DHT22;2434;48.486;7.964;2023-06-22T01:34:29;23.10;66.70
4840;DHT22;2434;48.486;7.964;2023-06-22T01:36:59;23.00;66.90
4840;DHT22;2434;48.486;7.964;2023-06-22T01:39:29;22.90;66.60
4840;DHT22;2434;48.486;7.964;2023-06-22T01:41:58;22.90;66.60
4840;DHT22;2434;48.486;7.964;2023-06-22T01:44:29;22.90;66.80
4840;DHT22;2434;48.486;7.964;2023-06-22T01:46:57;22.90;67.40
4840;DHT22;2434;48.486;7.964;2023-06-22T01:49:26;23.00;67.00
4840;DHT22;2434;48.486;7.964;2023-06-22T01:51:55;22.90;67.90
4840;DHT22;2434;48.486;7.964;2023-06-22T01:54:23;22.90;67.50
4840;DHT22;2434;48.486;7.964;2023-06-22T01:56:51;22.90;66.90
4840;DHT22;2434;48.486;7.964;2023-06-22T01:59:25;22.90;66.70
4840;DHT22;2434;48.486;7.964;2023-06-22T02:02:01;22.90;66.60
4840;DHT22;2434;48.486;7.964;2023-06-22T02:04:36;22.90;67.40
4840;DHT22;2434;48.486;7.964;2023-06-22T02:07:09;22.80;67.10
4840;DHT22;2434;48.486;7.964;2023-06-22T02:09:38;22.80;67.30
4840;DHT22;2434;48.486;7.964;2023-06-22T02:12:11;22.80;67.40
4840;DHT22;2434;48.486;7.964;2023-06-22T02:14:40;22.70;67.00
4840;DHT22;2434;48.486;7.964;2023-06-22T02:17:10;22.70;66.90
4840;DHT22;2434;48.486;7.964;2023-06-22T02:19:41;22.70;67.80
4840;DHT22;2434;48.486;7.964;2023-06-22T02:22:09;22.70;67.60
4840;DHT22;2434;48.486;7.964;2023-06-22T02:24:39;22.60;68.50
4840;DHT22;2434;48.486;7.964;2023-06-22T02:27:08;22.60;67.90
4840;DHT22;2434;48.486;7.964;2023-06-22T02:29:37;22.60;67.90
4840;DHT22;2434;48.486;7.964;2023-06-22T02:32:06;22.60;67.70
4840;DHT22;2434;48.486;7.964;2023-06-22T02:34:36;22.50;67.70
4840;DHT22;2434;48.486;7.964;2023-06-22T02:37:04;22.50;68.50
4840;DHT22;2434;48.486;7.964;2023-06-22T02:39:33;22.50;67.20
4840;DHT22;2434;48.486;7.964;2023-06-22T02:42:01;22.50;67.00
4840;DHT22;2434;48.486;7.964;2023-06-22T02:44:29;22.50;67.90
4840;DHT22;2434;48.486;7.964;2023-06-22T02:46:58;22.50;68.50
4840;DHT22;2434;48.486;7.964;2023-06-22T02:49:26;22.40;67.30
4840;DHT22;2434;48.486;7.964;2023-06-22T02:51:57;22.40;67.50
4840;DHT22;2434;48.486;7.964;2023-06-22T02:54:26;22.40;67.40
4840;DHT22;2434;48.486;7.964;2023-06-22T02:56:54;22.40;67.90
4840;DHT22;2434;48.486;7.964;2023-06-22T02:59:23;22.30;68.00
4840;DHT22;2434;48.486;7.964;2023-06-22T03:02:00;22.30;68.30
4840;DHT22;2434;48.486;7.964;2023-06-22T03:04:31;22.30;67.60
4840;DHT22;2434;48.486;7.964;2023-06-22T03:07:01;22.20;67.90
4840;DHT22;2434;48.486;7.964;2023-06-22T03:09:32;22.20;68.20
4840;DHT22;2434;48.486;7.964;2023-06-22T03:12:00;22.20;67.80
4840;DHT22;2434;48.486;7.964;2023-06-22T03:14:38;22.10;67.50
4840;DHT22;2434;48.486;7.964;2023-06-22T03:17:07;22.10;68.20
4840;DHT22;2434;48.486;7.964;2023-06-22T03:19:36;22.10;68.00
4840;DHT22;2434;48.486;7.964;2023-06-22T03:22:06;22.00;67.90
4840;DHT22;2434;48.486;7.964;2023-06-22T03:24:35;22.00;67.80
4840;DHT22;2434;48.486;7.964;2023-06-22T03:27:06;21.90;67.90
4840;DHT22;2434;48.486;7.964;2023-06-22T03:29:34;21.90;68.80
4840;DHT22;2434;48.486;7.964;2023-06-22T03:32:03;21.90;68.40
4840;DHT22;2434;48.486;7.964;2023-06-22T03:34:33;21.90;69.20
4840;DHT22;2434;48.486;7.964;2023-06-22T03:37:01;21.90;69.40
4840;DHT22;2434;48.486;7.964;2023-06-22T03:39:31;21.90;69.70
4840;DHT22;2434;48.486;7.964;2023-06-22T03:41:59;21.80;69.30
4840;DHT22;2434;48.486;7.964;2023-06-22T03:44:28;21.80;69.20
4840;DHT22;2434;48.486;7.964;2023-06-22T03:46:56;21.80;69.50
4840;DHT22;2434;48.486;7.964;2023-06-22T03:49:24;21.80;69.90
4840;DHT22;2434;48.486;7.964;2023-06-22T03:51:53;21.90;70.30
4840;DHT22;2434;48.486;7.964;2023-06-22T03:54:21;21.80;70.20
4840;DHT22;2434;48.486;7.964;2023-06-22T03:56:50;21.80;70.20
4840;DHT22;2434;48.486;7.964;2023-06-22T03:59:19;21.70;70.80
4840;DHT22;2434;48.486;7.964;2023-06-22T04:01:47;21.70;70.90
4840;DHT22;2434;48.486;7.964;2023-06-22T04:04:16;21.70;70.60
4840;DHT22;2434;48.486;7.964;2023-06-22T04:06:45;21.70;70.70
4840;DHT22;2434;48.486;7.964;2023-06-22T04:09:13;21.70;70.60
4840;DHT22;2434;48.486;7.964;2023-06-22T04:11:42;21.80;71.10
4840;DHT22;2434;48.486;7.964;2023-06-22T04:14:12;21.70;71.40
4840;DHT22;2434;48.486;7.964;2023-06-22T04:16:40;21.80;71.30
4840;DHT22;2434;48.486;7.964;2023-06-22T04:19:08;21.70;71.50
4840;DHT22;2434;48.486;7.964;2023-06-22T04:21:43;21.70;71.10
4840;DHT22;2434;48.486;7.964;2023-06-22T04:24:11;21.70;71.10
4840;DHT22;2434;48.486;7.964;2023-06-22T04:26:40;21.70;71.30
4840;DHT22;2434;48.486;7.964;2023-06-22T04:29:09;21.70;71.30
4840;DHT22;2434;48.486;7.964;2023-06-22T04:31:39;21.70;72.60
4840;DHT22;2434;48.486;7.964;2023-06-22T04:34:08;21.70;72.60
4840;DHT22;2434;48.486;7.964;2023-06-22T04:36:38;21.70;71.90
4840;DHT22;2434;48.486;7.964;2023-06-22T04:39:07;21.70;72.00
4840;DHT22;2434;48.486;7.964;2023-06-22T04:41:36;21.70;72.90
4840;DHT22;2434;48.486;7.964;2023-06-22T04:44:10;21.70;72.70
4840;DHT22;2434;48.486;7.964;2023-06-22T04:46:40;21.70;73.60
4840;DHT22;2434;48.486;7.964;2023-06-22T04:49:09;21.70;73.00
4840;DHT22;2434;48.486;7.964;2023-06-22T04:51:39;21.70;74.10
4840;DHT22;2434;48.486;7.964;2023-06-22T04:54:09;21.70;73.30
4840;DHT22;2434;48.486;7.964;2023-06-22T04:56:37;21.70;72.60
4840;DHT22;2434;48.486;7.964;2023-06-22T04:59:08;21.70;73.00
4840;DHT22;2434;48.486;7.964;2023-06-22T05:01:41;21.70;74.20
4840;DHT22;2434;48.486;7.964;2023-06-22T05:04:10;21.70;73.20
4840;DHT22;2434;48.486;7.964;2023-06-22T05:06:39;21.70;73.00
4840;DHT22;2434;48.486;7.964;2023-06-22T05:09:08;21.80;72.90
4840;DHT22;2434;48.486;7.964;2023-06-22T05:11:36;21.80;73.00
4840;DHT22;2434;48.486;7.964;2023-06-22T05:14:04;21.80;73.20
4840;DHT22;2434;48.486;7.964;2023-06-22T05:16:34;21.80;73.10
4840;DHT22;2434;48.486;7.964;2023-06-22T05:19:05;21.90;72.90
4840;DHT22;2434;48.486;7.964;2023-06-22T05:21:33;21.90;73.20
4840;DHT22;2434;48.486;7.964;2023-06-22T05:24:01;21.90;74.20
4840;DHT22;2434;48.486;7.964;2023-06-22T05:26:31;21.90;74.10
4840;DHT22;2434;48.486;7.964;2023-06-22T05:29:01;21.90;73.20
4840;DHT22;2434;48.486;7.964;2023-06-22T05:31:29;21.90;74.40
4840;DHT22;2434;48.486;7.964;2023-06-22T05:33:58;21.90;73.40
4840;DHT22;2434;48.486;7.964;2023-06-22T05:36:29;22.00;73.40
4840;DHT22;2434;48.486;7.964;2023-06-22T05:38:57;21.90;72.20
4840;DHT22;2434;48.486;7.964;2023-06-22T05:41:26;22.00;72.50
4840;DHT22;2434;48.486;7.964;2023-06-22T05:43:54;22.00;73.30
4840;DHT22;2434;48.486;7.964;2023-06-22T05:46:23;22.00;73.40
4840;DHT22;2434;48.486;7.964;2023-06-22T05:48:51;22.00;72.00
4840;DHT22;2434;48.486;7.964;2023-06-22T05:51:19;22.00;73.10
4840;DHT22;2434;48.486;7.964;2023-06-22T05:53:50;22.00;72.20
4840;DHT22;2434;48.486;7.964;2023-06-22T05:56:18;22.00;72.60
4840;DHT22;2434;48.486;7.964;2023-06-22T05:58:47;22.00;73.40
4840;DHT22;2434;48.486;7.964;2023-06-22T06:01:16;22.00;72.60
4840;DHT22;2434;48.486;7.964;2023-06-22T06:03:44;22.10;74.30
4840;DHT22;2434;48.486;7.964;2023-06-22T06:06:12;22.10;75.10
4840;DHT22;2434;48.486;7.964;2023-06-22T06:08:41;22.10;74.50
4840;DHT22;2434;48.486;7.964;2023-06-22T06:11:10;22.20;74.60
4840;DHT22;2434;48.486;7.964;2023-06-22T06:13:39;22.20;74.80
4840;DHT22;2434;48.486;7.964;2023-06-22T06:16:07;22.20;75.20
4840;DHT22;2434;48.486;7.964;2023-06-22T06:18:35;22.20;74.40
4840;DHT22;2434;48.486;7.964;2023-06-22T06:21:04;22.20;74.20
4840;DHT22;2434;48.486;7.964;2023-06-22T06:23:33;22.20;74.80
4840;DHT22;2434;48.486;7.964;2023-06-22T06:26:01;22.20;74.80
4840;DHT22;2434;48.486;7.964;2023-06-22T06:28:35;22.30;75.40
4840;DHT22;2434;48.486;7.964;2023-06-22T06:31:03;22.30;74.50
4840;DHT22;2434;48.486;7.964;2023-06-22T06:33:34;22.30;74.60
4840;DHT22;2434;48.486;7.964;2023-06-22T06:36:03;22.30;74.80
4840;DHT22;2434;48.486;7.964;2023-06-22T06:38:31;22.40;74.50
4840;DHT22;2434;48.486;7.964;2023-06-22T06:40:59;22.40;74.40
4840;DHT22;2434;48.486;7.964;2023-06-22T06:43:28;22.50;75.60
4840;DHT22;2434;48.486;7.964;2023-06-22T06:45:58;22.50;75.10
4840;DHT22;2434;48.486;7.964;2023-06-22T06:48:26;22.50;74.40
4840;DHT22;2434;48.486;7.964;2023-06-22T06:50:54;22.50;74.20
4840;DHT22;2434;48.486;7.964;2023-06-22T06:53:23;22.60;73.90
4840;DHT22;2434;48.486;7.964;2023-06-22T06:55:51;22.60;73.50
4840;DHT22;2434;48.486;7.964;2023-06-22T06:58:19;22.60;72.80
4840;DHT22;2434;48.486;7.964;2023-06-22T07:00:50;22.60;73.10
4840;DHT22;2434;48.486;7.964;2023-06-22T07:03:19;22.60;73.00
4840;DHT22;2434;48.486;7.964;2023-06-22T07:05:47;22.60;72.70
4840;DHT22;2434;48.486;7.964;2023-06-22T07:08:16;22.70;73.80
4840;DHT22;2434;48.486;7.964;2023-06-22T07:10:44;22.70;75.00
4840;DHT22;2434;48.486;7.964;2023-06-22T07:13:13;22.70;75.70
4840;DHT22;2434;48.486;7.964;2023-06-22T07:15:41;22.80;73.70
4840;DHT22;2434;48.486;7.964;2023-06-22T07:18:10;22.80;73.00
4840;DHT22;2434;48.486;7.964;2023-06-22T07:20:40;22.90;72.00
4840;DHT22;2434;48.486;7.964;2023-06-22T07:23:08;22.90;72.60
4840;DHT22;2434;48.486;7.964;2023-06-22T07:25:37;22.90;71.40
4840;DHT22;2434;48.486;7.964;2023-06-22T07:28:06;23.00;72.10
4840;DHT22;2434;48.486;7.964;2023-06-22T07:30:35;23.10;72.60
4840;DHT22;2434;48.486;7.964;2023-06-22T07:33:03;23.10;72.40
4840;DHT22;2434;48.486;7.964;2023-06-22T07:35:35;23.10;71.90
4840;DHT22;2434;48.486;7.964;2023-06-22T07:38:05;23.20;72.10
4840;DHT22;2434;48.486;7.964;2023-06-22T07:40:33;23.30;70.70
4840;DHT22;2434;48.486;7.964;2023-06-22T07:43:02;23.30;70.60
4840;DHT22;2434;48.486;7.964;2023-06-22T07:45:30;23.30;70.80
4840;DHT22;2434;48.486;7.964;2023-06-22T07:48:02;23.30;71.30
4840;DHT22;2434;48.486;7.964;2023-06-22T07:50:30;23.30;70.30
4840;DHT22;2434;48.486;7.964;2023-06-22T07:52:59;23.30;70.00
4840;DHT22;2434;48.486;7.964;2023-06-22T07:55:29;23.30;69.80
4840;DHT22;2434;48.486;7.964;2023-06-22T07:57:57;23.40;72.60
4840;DHT22;2434;48.486;7.964;2023-06-22T08:00:26;23.40;72.40
4840;DHT22;2434;48.486;7.964;2023-06-22T08:02:54;23.40;70.20
4840;DHT22;2434;48.486;7.964;2023-06-22T08:05:23;23.40;70.90
4840;DHT22;2434;48.486;7.964;2023-06-22T08:07:51;23.40;71.40
4840;DHT22;2434;48.486;7.964;2023-06-22T08:10:21;23.50;71.00
4840;DHT22;2434;48.486;7.964;2023-06-22T08:12:51;23.50;71.00
4840;DHT22;2434;48.486;7.964;2023-06-22T08:15:20;23.50;70.80
4840;DHT22;2434;48.486;7.964;2023-06-22T08:17:49;23.60;70.30
4840;DHT22;2434;48.486;7.964;2023-06-22T08:20:19;23.60;70.70
4840;DHT22;2434;48.486;7.964;2023-06-22T08:22:48;23.70;71.10
4840;DHT22;2434;48.486;7.964;2023-06-22T08:25:16;23.70;71.40
4840;DHT22;2434;48.486;7.964;2023-06-22T08:27:45;23.80;71.70
4840;DHT22;2434;48.486;7.964;2023-06-22T08:30:17;23.80;70.80
4840;DHT22;2434;48.486;7.964;2023-06-22T08:32:45;23.90;72.50
4840;DHT22;2434;48.486;7.964;2023-06-22T08:35:14;24.00;69.60
4840;DHT22;2434;48.486;7.964;2023-06-22T08:37:42;24.00;68.70
4840;DHT22;2434;48.486;7.964;2023-06-22T08:40:12;24.10;68.00
4840;DHT22;2434;48.486;7.964;2023-06-22T08:42:40;24.20;68.70
4840;DHT22;2434;48.486;7.964;2023-06-22T08:45:10;24.20;67.90
4840;DHT22;2434;48.486;7.964;2023-06-22T08:47:40;24.20;67.00
4840;DHT22;2434;48.486;7.964;2023-06-22T08:50:09;24.30;66.20
4840;DHT22;2434;48.486;7.964;2023-06-22T08:52:39;24.30;67.20
4840;DHT22;2434;48.486;7.964;2023-06-22T08:55:09;24.30;66.20
4840;DHT22;2434;48.486;7.964;2023-06-22T08:57:37;24.40;66.00
4840;DHT22;2434;48.486;7.964;2023-06-22T09:00:07;24.40;64.20
4840;DHT22;2434;48.486;7.964;2023-06-22T09:02:48;24.40;63.60
4840;DHT22;2434;48.486;7.964;2023-06-22T09:05:17;24.50;64.60
4840;DHT22;2434;48.486;7.964;2023-06-22T09:07:45;24.50;64.80
4840;DHT22;2434;48.486;7.964;2023-06-22T09:10:14;24.50;65.80
4840;DHT22;2434;48.486;7.964;2023-06-22T09:12:42;24.50;65.90
4840;DHT22;2434;48.486;7.964;2023-06-22T09:15:11;24.60;64.20
4840;DHT22;2434;48.486;7.964;2023-06-22T09:17:44;24.60;64.20
4840;DHT22;2434;48.486;7.964;2023-06-22T09:20:15;24.60;62.70
4840;DHT22;2434;48.486;7.964;2023-06-22T09:22:44;24.60;64.10
4840;DHT22;2434;48.486;7.964;2023-06-22T09:25:12;24.70;64.50
4840;DHT22;2434;48.486;7.964;2023-06-22T09:27:41;24.70;64.90
4840;DHT22;2434;48.486;7.964;2023-06-22T09:30:10;24.70;64.70
4840;DHT22;2434;48.486;7.964;2023-06-22T09:32:38;24.70;63.90
4840;DHT22;2434;48.486;7.964;2023-06-22T09:35:08;24.80;66.70
4840;DHT22;2434;48.486;7.964;2023-06-22T09:37:41;24.80;63.90
4840;DHT22;2434;48.486;7.964;2023-06-22T09:40:10;24.80;66.10
4840;DHT22;2434;48.486;7.964;2023-06-22T09:42:41;24.90;64.00
4840;DHT22;2434;48.486;7.964;2023-06-22T09:45:10;24.90;63.30
4840;DHT22;2434;48.486;7.964;2023-06-22T09:47:38;24.90;62.40
4840;DHT22;2434;48.486;7.964;2023-06-22T09:50:08;25.00;67.00
4840;DHT22;2434;48.486;7.964;2023-06-22T09:52:36;25.00;63.40
4840;DHT22;2434;48.486;7.964;2023-06-22T09:55:09;25.00;63.90
4840;DHT22;2434;48.486;7.964;2023-06-22T09:57:37;25.00;65.00
4840;DHT22;2434;48.486;7.964;2023-06-22T10:00:07;25.10;62.40
4840;DHT22;2434;48.486;7.964;2023-06-22T10:02:39;25.10;62.60
4840;DHT22;2434;48.486;7.964;2023-06-22T10:05:08;25.10;63.40
4840;DHT22;2434;48.486;7.964;2023-06-22T10:07:37;25.20;62.50
4840;DHT22;2434;48.486;7.964;2023-06-22T10:10:11;25.20;64.50
4840;DHT22;2434;48.486;7.964;2023-06-22T10:12:45;25.20;63.90
4840;DHT22;2434;48.486;7.964;2023-06-22T10:15:14;25.30;66.00
4840;DHT22;2434;48.486;7.964;2023-06-22T10:17:43;25.30;65.50
4840;DHT22;2434;48.486;7.964;2023-06-22T10:20:12;25.40;65.50
4840;DHT22;2434;48.486;7.964;2023-06-22T10:22:42;25.40;62.10
4840;DHT22;2434;48.486;7.964;2023-06-22T10:25:12;25.50;62.30
4840;DHT22;2434;48.486;7.964;2023-06-22T10:27:41;25.50;63.10
4840;DHT22;2434;48.486;7.964;2023-06-22T10:30:11;25.60;63.30
4840;DHT22;2434;48.486;7.964;2023-06-22T10:32:40;25.60;63.40
4840;DHT22;2434;48.486;7.964;2023-06-22T10:35:10;25.70;62.80
4840;DHT22;2434;48.486;7.964;2023-06-22T10:37:41;25.70;64.20
4840;DHT22;2434;48.486;7.964;2023-06-22T10:40:13;25.80;67.20
4840;DHT22;2434;48.486;7.964;2023-06-22T10:42:42;25.80;63.30
4840;DHT22;2434;48.486;7.964;2023-06-22T10:45:11;25.90;62.60
4840;DHT22;2434;48.486;7.964;2023-06-22T10:47:40;26.00;62.40
4840;DHT22;2434;48.486;7.964;2023-06-22T10:50:10;26.00;61.40
4840;DHT22;2434;48.486;7.964;2023-06-22T10:52:38;26.00;59.90
4840;DHT22;2434;48.486;7.964;2023-06-22T10:55:09;26.00;60.90
4840;DHT22;2434;48.486;7.964;2023-06-22T10:57:38;26.10;61.60
4840;DHT22;2434;48.486;7.964;2023-06-22T11:00:11;26.00;60.70
4840;DHT22;2434;48.486;7.964;2023-06-22T11:02:40;26.10;61.90
4840;DHT22;2434;48.486;7.964;2023-06-22T11:05:09;26.30;63.00
4840;DHT22;2434;48.486;7.964;2023-06-22T11:07:37;26.40;62.40
4840;DHT22;2434;48.486;7.964;2023-06-22T11:10:08;26.40;58.80
4840;DHT22;2434;48.486;7.964;2023-06-22T11:12:38;26.50;58.40
4840;DHT22;2434;48.486;7.964;2023-06-22T11:15:08;26.50;60.60
4840;DHT22;2434;48.486;7.964;2023-06-22T11:17:36;26.40;59.00
4840;DHT22;2434;48.486;7.964;2023-06-22T11:20:06;26.50;59.00
4840;DHT22;2434;48.486;7.964;2023-06-22T11:22:38;26.50;58.80
4840;DHT22;2434;48.486;7.964;2023-06-22T11:25:07;26.50;58.70
4840;DHT22;2434;48.486;7.964;2023-06-22T11:27:35;26.60;58.20
4840;DHT22;2434;48.486;7.964;2023-06-22T11:30:07;26.60;58.00
4840;DHT22;2434;48.486;7.964;2023-06-22T11:32:35;26.70;55.90
4840;DHT22;2434;48.486;7.964;2023-06-22T11:35:05;26.70;57.40
4840;DHT22;2434;48.486;7.964;2023-06-22T11:37:33;26.80;56.60
4840;DHT22;2434;48.486;7.964;2023-06-22T11:40:01;26.80;56.10
4840;DHT22;2434;48.486;7.964;2023-06-22T11:42:34;26.80;56.10
4840;DHT22;2434;48.486;7.964;2023-06-22T11:45:04;26.80;57.60
4840;DHT22;2434;48.486;7.964;2023-06-22T11:47:34;27.00;57.10
4840;DHT22;2434;48.486;7.964;2023-06-22T11:50:03;27.00;54.80
4840;DHT22;2434;48.486;7.964;2023-06-22T11:52:33;27.00;54.50
4840;DHT22;2434;48.486;7.964;2023-06-22T11:55:03;27.00;53.30
4840;DHT22;2434;48.486;7.964;2023-06-22T11:57:33;27.00;52.40
4840;DHT22;2434;48.486;7.964;2023-06-22T12:00:03;27.00;52.50
4840;DHT22;2434;48.486;7.964;2023-06-22T12:02:42;27.00;52.00
4840;DHT22;2434;48.486;7.964;2023-06-22T12:05:12;27.10;52.30
4840;DHT22;2434;48.486;7.964;2023-06-22T12:07:40;27.00;52.70
4840;DHT22;2434;48.486;7.964;2023-06-22T12:10:09;27.00;52.90
4840;DHT22;2434;48.486;7.964;2023-06-22T12:12:38;27.00;52.70
4840;DHT22;2434;48.486;7.964;2023-06-22T12:15:06;27.00;52.20
4840;DHT22;2434;48.486;7.964;2023-06-22T12:17:35;27.00;51.60
4840;DHT22;2434;48.486;7.964;2023-06-22T12:20:06;27.10;51.90
4840;DHT22;2434;48.486;7.964;2023-06-22T12:22:35;27.10;53.20
4840;DHT22;2434;48.486;7.964;2023-06-22T12:25:05;27.20;52.40
4840;DHT22;2434;48.486;7.964;2023-06-22T12:27:34;27.30;51.80
4840;DHT22;2434;48.486;7.964;2023-06-22T12:30:03;27.40;50.20
4840;DHT22;2434;48.486;7.964;2023-06-22T12:32:31;27.40;49.70
4840;DHT22;2434;48.486;7.964;2023-06-22T12:35:00;27.40;51.80
4840;DHT22;2434;48.486;7.964;2023-06-22T12:37:30;27.40;50.20
4840;DHT22;2434;48.486;7.964;2023-06-22T12:39:59;27.50;49.70
4840;DHT22;2434;48.486;7.964;2023-06-22T12:42:27;27.40;50.40
4840;DHT22;2434;48.486;7.964;2023-06-22T12:44:55;27.50;49.70
4840;DHT22;2434;48.486;7.964;2023-06-22T12:47:24;27.50;49.40
4840;DHT22;2434;48.486;7.964;2023-06-22T12:49:52;27.60;49.00
4840;DHT22;2434;48.486;7.964;2023-06-22T12:52:20;27.60;48.60
4840;DHT22;2434;48.486;7.964;2023-06-22T12:54:50;27.70;50.30
4840;DHT22;2434;48.486;7.964;2023-06-22T12:57:22;27.80;48.80
4840;DHT22;2434;48.486;7.964;2023-06-22T12:59:50;27.90;49.40
4840;DHT22;2434;48.486;7.964;2023-06-22T13:02:18;27.90;47.90
4840;DHT22;2434;48.486;7.964;2023-06-22T13:04:46;27.90;47.90
4840;DHT22;2434;48.486;7.964;2023-06-22T13:07:14;27.80;47.60
4840;DHT22;2434;48.486;7.964;2023-06-22T13:09:50;27.80;48.00
4840;DHT22;2434;48.486;7.964;2023-06-22T13:12:20;27.80;49.50
4840;DHT22;2434;48.486;7.964;2023-06-22T13:14:48;27.80;49.20
4840;DHT22;2434;48.486;7.964;2023-06-22T13:17:17;27.80;47.70
4840;DHT22;2434;48.486;7.964;2023-06-22T13:19:45;27.90;48.10
4840;DHT22;2434;48.486;7.964;2023-06-22T13:22:29;27.90;47.60
4840;DHT22;2434;48.486;7.964;2023-06-22T13:24:59;28.00;48.60
4840;DHT22;2434;48.486;7.964;2023-06-22T13:27:29;28.00;48.00
4840;DHT22;2434;48.486;7.964;2023-06-22T13:29:57;28.10;46.30
4840;DHT22;2434;48.486;7.964;2023-06-22T13:32:42;28.20;47.20
4840;DHT22;2434;48.486;7.964;2023-06-22T13:35:28;28.20;47.80
4840;DHT22;2434;48.486;7.964;2023-06-22T13:38:13;28.20;47.10
4840;DHT22;2434;48.486;7.964;2023-06-22T13:40:43;28.40;46.50
4840;DHT22;2434;48.486;7.964;2023-06-22T13:43:29;28.40;46.90
4840;DHT22;2434;48.486;7.964;2023-06-22T13:46:14;28.50;47.00
4840;DHT22;2434;48.486;7.964;2023-06-22T13:48:43;28.60;48.30
4840;DHT22;2434;48.486;7.964;2023-06-22T13:51:11;28.60;46.70
4840;DHT22;2434;48.486;7.964;2023-06-22T13:53:39;28.60;46.00
4840;DHT22;2434;48.486;7.964;2023-06-22T13:56:09;28.70;44.10
4840;DHT22;2434;48.486;7.964;2023-06-22T13:58:37;28.80;43.20
4840;DHT22;2434;48.486;7.964;2023-06-22T14:01:05;28.90;40.90
4840;DHT22;2434;48.486;7.964;2023-06-22T14:03:37;29.00;39.90
4840;DHT22;2434;48.486;7.964;2023-06-22T14:06:05;29.00;39.60
4840;DHT22;2434;48.486;7.964;2023-06-22T14:08:33;28.90;39.20
4840;DHT22;2434;48.486;7.964;2023-06-22T14:11:04;29.00;39.10
4840;DHT22;2434;48.486;7.964;2023-06-22T14:13:34;29.00;39.60
4840;DHT22;2434;48.486;7.964;2023-06-22T14:16:03;29.00;40.00
4840;DHT22;2434;48.486;7.964;2023-06-22T14:18:32;29.00;40.20
4840;DHT22;2434;48.486;7.964;2023-06-22T14:21:01;29.00;40.20
4840;DHT22;2434;48.486;7.964;2023-06-22T14:23:29;28.90;40.50
4840;DHT22;2434;48.486;7.964;2023-06-22T14:25:57;29.00;42.30
4840;DHT22;2434;48.486;7.964;2023-06-22T14:28:25;29.00;41.10
4840;DHT22;2434;48.486;7.964;2023-06-22T14:30:55;29.10;40.40
4840;DHT22;2434;48.486;7.964;2023-06-22T14:33:23;29.20;39.50
4840;DHT22;2434;48.486;7.964;2023-06-22T14:35:51;29.30;40.00
4840;DHT22;2434;48.486;7.964;2023-06-22T14:38:20;29.30;39.20
4840;DHT22;2434;48.486;7.964;2023-06-22T14:40:48;29.40;39.10
4840;DHT22;2434;48.486;7.964;2023-06-22T14:43:36;29.50;37.00
4840;DHT22;2434;48.486;7.964;2023-06-22T14:46:06;29.50;36.10
4840;DHT22;2434;48.486;7.964;2023-06-22T14:48:35;29.60;35.70
4840;DHT22;2434;48.486;7.964;2023-06-22T14:51:04;29.60;35.90
4840;DHT22;2434;48.486;7.964;2023-06-22T14:53:33;29.60;33.70
4840;DHT22;2434;48.486;7.964;2023-06-22T14:56:02;29.60;34.40
4840;DHT22;2434;48.486;7.964;2023-06-22T14:58:32;29.60;33.70
4840;DHT22;2434;48.486;7.964;2023-06-22T15:01:01;29.70;32.20
4840;DHT22;2434;48.486;7.964;2023-06-22T15:03:32;29.60;33.50
4840;DHT22;2434;48.486;7.964;2023-06-22T15:06:03;29.70;34.30
4840;DHT22;2434;48.486;7.964;2023-06-22T15:08:32;29.80;32.90
4840;DHT22;2434;48.486;7.964;2023-06-22T15:11:00;30.00;33.10
4840;DHT22;2434;48.486;7.964;2023-06-22T15:13:31;30.00;32.30
4840;DHT22;2434;48.486;7.964;2023-06-22T15:16:01;30.10;32.00
4840;DHT22;2434;48.486;7.964;2023-06-22T15:18:32;30.20;30.40
4840;DHT22;2434;48.486;7.964;2023-06-22T15:21:02;30.20;30.90
4840;DHT22;2434;48.486;7.964;2023-06-22T15:23:31;30.10;31.70
4840;DHT22;2434;48.486;7.964;2023-06-22T15:26:02;30.10;31.70
4840;DHT22;2434;48.486;7.964;2023-06-22T15:28:31;30.00;31.50
4840;DHT22;2434;48.486;7.964;2023-06-22T15:31:02;30.00;31.70
4840;DHT22;2434;48.486;7.964;2023-06-22T15:33:32;30.00;32.20
4840;DHT22;2434;48.486;7.964;2023-06-22T15:36:00;30.00;30.60
4840;DHT22;2434;48.486;7.964;2023-06-22T15:38:31;30.10;30.20
4840;DHT22;2434;48.486;7.964;2023-06-22T15:41:00;30.10;30.50
4840;DHT22;2434;48.486;7.964;2023-06-22T15:43:28;30.20;29.10
4840;DHT22;2434;48.486;7.964;2023-06-22T15:45:56;30.10;30.40
4840;DHT22;2434;48.486;7.964;2023-06-22T15:48:24;30.20;29.40
4840;DHT22;2434;48.486;7.964;2023-06-22T15:50:54;30.20;29.50
4840;DHT22;2434;48.486;7.964;2023-06-22T15:53:22;30.20;30.10
4840;DHT22;2434;48.486;7.964;2023-06-22T15:55:51;30.20;29.80
4840;DHT22;2434;48.486;7.964;2023-06-22T15:58:19;30.20;28.80
4840;DHT22;2434;48.486;7.964;2023-06-22T16:00:48;30.30;28.80
4840;DHT22;2434;48.486;7.964;2023-06-22T16:03:19;30.20;29.70
4840;DHT22;2434;48.486;7.964;2023-06-22T16:05:47;30.30;28.90
4840;DHT22;2434;48.486;7.964;2023-06-22T16:08:17;30.20;28.70
4840;DHT22;2434;48.486;7.964;2023-06-22T16:10:45;30.20;29.00
4840;DHT22;2434;48.486;7.964;2023-06-22T16:13:14;30.20;28.40
4840;DHT22;2434;48.486;7.964;2023-06-22T16:15:43;30.20;28.80
4840;DHT22;2434;48.486;7.964;2023-06-22T16:18:11;30.20;27.30